GAF578 EDDL-ETNW
Flight info
| Callsign | GAF578 |
|---|---|
| Flight time | 0h 28m |
| Altitude | 19000 |
| Route | HMM DCT OSB |
| Aircraft | A400/H-SDE3FGHIRWY/L4T |
Departure
| Time | 2026-05-07 16:23 |
|---|---|
| Airport | Düsseldorf Airport (EDDL) |
Arrival
| Time | 2026-05-07 16:51 |
|---|---|
| Airport | Wunstorf Air Base (ETNW) |
| Time | Latitude | Longitude | Altitude | Speed | Heading |
|---|---|---|---|---|---|
| 2026-05-07 16:00 | 51.27763 | 6.75700 | 139 ft | 0 kts | 271° |
| 2026-05-07 16:01 | 51.27763 | 6.75710 | 139 ft | 0 kts | 271° |
| 2026-05-07 16:15 | 51.27763 | 6.75740 | 139 ft | 4 kts | 274° |
| 2026-05-07 16:16 | 51.27759 | 6.75782 | 139 ft | 4 kts | 291° |
| 2026-05-07 16:16 | 51.27746 | 6.75810 | 139 ft | 4 kts | 351° |
| 2026-05-07 16:16 | 51.27722 | 6.75811 | 139 ft | 4 kts | 1° |
| 2026-05-07 16:16 | 51.27712 | 6.75811 | 139 ft | 2 kts | 1° |
| 2026-05-07 16:19 | 51.27716 | 6.75811 | 139 ft | 2 kts | 1° |
| 2026-05-07 16:19 | 51.27745 | 6.75812 | 139 ft | 6 kts | 1° |
| 2026-05-07 16:20 | 51.27798 | 6.75813 | 139 ft | 9 kts | 0° |
| 2026-05-07 16:20 | 51.27852 | 6.75769 | 139 ft | 9 kts | 303° |
| 2026-05-07 16:20 | 51.27864 | 6.75668 | 138 ft | 10 kts | 280° |
| 2026-05-07 16:20 | 51.27889 | 6.75601 | 138 ft | 7 kts | 301° |
| 2026-05-07 16:21 | 51.27888 | 6.75511 | 137 ft | 10 kts | 247° |
| 2026-05-07 16:21 | 51.27845 | 6.75409 | 136 ft | 12 kts | 244° |
| 2026-05-07 16:21 | 51.27864 | 6.75331 | 131 ft | 7 kts | 323° |
| 2026-05-07 16:21 | 51.27916 | 6.75291 | 128 ft | 10 kts | 337° |
| 2026-05-07 16:22 | 51.27989 | 6.75280 | 129 ft | 11 kts | 19° |
| 2026-05-07 16:22 | 51.28027 | 6.75340 | 125 ft | 0 kts | 52° |
| 2026-05-07 16:22 | 51.28095 | 6.75481 | 135 ft | 50 kts | 53° |
| 2026-05-07 16:22 | 51.28538 | 6.76410 | 145 ft | 155 kts | 51° |
| 2026-05-07 16:23 | 51.29255 | 6.77939 | 744 ft | 181 kts | 53° |
| 2026-05-07 16:23 | 51.30025 | 6.79654 | 1643 ft | 201 kts | 52° |
| 2026-05-07 16:23 | 51.30925 | 6.81545 | 2367 ft | 224 kts | 50° |
| 2026-05-07 16:23 | 51.31921 | 6.83606 | 3156 ft | 244 kts | 51° |
| 2026-05-07 16:24 | 51.32972 | 6.85814 | 4070 ft | 254 kts | 52° |
| 2026-05-07 16:24 | 51.34047 | 6.88117 | 5038 ft | 260 kts | 49° |
| 2026-05-07 16:24 | 51.35397 | 6.90046 | 6268 ft | 262 kts | 30° |
| 2026-05-07 16:24 | 51.37123 | 6.91058 | 7386 ft | 269 kts | 12° |
| 2026-05-07 16:25 | 51.38958 | 6.91605 | 8526 ft | 274 kts | 8° |
| 2026-05-07 16:25 | 51.40866 | 6.92080 | 9641 ft | 282 kts | 7° |
| 2026-05-07 16:25 | 51.42841 | 6.92570 | 10577 ft | 294 kts | 8° |
| 2026-05-07 16:25 | 51.44910 | 6.93097 | 11404 ft | 306 kts | 8° |
| 2026-05-07 16:26 | 51.47039 | 6.93653 | 12325 ft | 313 kts | 8° |
| 2026-05-07 16:26 | 51.49214 | 6.94111 | 13308 ft | 317 kts | 1° |
| 2026-05-07 16:26 | 51.51434 | 6.93889 | 14268 ft | 321 kts | 351° |
| 2026-05-07 16:26 | 51.52900 | 6.93528 | 14858 ft | 324 kts | 349° |
| 2026-05-07 16:27 | 51.55902 | 6.92681 | 16097 ft | 330 kts | 348° |
| 2026-05-07 16:27 | 51.58152 | 6.92036 | 17036 ft | 334 kts | 348° |
| 2026-05-07 16:27 | 51.60462 | 6.91379 | 17975 ft | 339 kts | 348° |
| 2026-05-07 16:27 | 51.62802 | 6.90718 | 18672 ft | 344 kts | 348° |
| 2026-05-07 16:28 | 51.65175 | 6.90051 | 18990 ft | 348 kts | 348° |
| 2026-05-07 16:28 | 51.67588 | 6.89585 | 19049 ft | 350 kts | 358° |
| 2026-05-07 16:28 | 51.69991 | 6.90178 | 19051 ft | 353 kts | 18° |
| 2026-05-07 16:28 | 51.72126 | 6.92134 | 19049 ft | 356 kts | 39° |
| 2026-05-07 16:29 | 51.73794 | 6.95092 | 19053 ft | 357 kts | 51° |
| 2026-05-07 16:29 | 51.75280 | 6.98310 | 19050 ft | 357 kts | 53° |
| 2026-05-07 16:29 | 51.76735 | 7.01562 | 19056 ft | 357 kts | 53° |
| 2026-05-07 16:29 | 51.78171 | 7.04766 | 19056 ft | 357 kts | 53° |
| 2026-05-07 16:30 | 51.79633 | 7.08012 | 19059 ft | 357 kts | 53° |
| 2026-05-07 16:30 | 51.81102 | 7.11262 | 19059 ft | 357 kts | 53° |
| 2026-05-07 16:30 | 51.82571 | 7.14508 | 19059 ft | 357 kts | 53° |
| 2026-05-07 16:30 | 51.84028 | 7.17766 | 19058 ft | 357 kts | 56° |
| 2026-05-07 16:31 | 51.85140 | 7.21356 | 19058 ft | 357 kts | 72° |
| 2026-05-07 16:31 | 51.85608 | 7.25290 | 19066 ft | 357 kts | 83° |
| 2026-05-07 16:31 | 51.85780 | 7.29302 | 19064 ft | 357 kts | 89° |
| 2026-05-07 16:31 | 51.85797 | 7.33325 | 19062 ft | 357 kts | 91° |
| 2026-05-07 16:32 | 51.85752 | 7.37296 | 19061 ft | 358 kts | 92° |
| 2026-05-07 16:32 | 51.85699 | 7.41327 | 19061 ft | 358 kts | 91° |
| 2026-05-07 16:32 | 51.85660 | 7.45362 | 19070 ft | 358 kts | 91° |
| 2026-05-07 16:32 | 51.85641 | 7.49386 | 19070 ft | 358 kts | 91° |
| 2026-05-07 16:33 | 51.85638 | 7.53428 | 19072 ft | 358 kts | 90° |
| 2026-05-07 16:33 | 51.85646 | 7.57458 | 19073 ft | 358 kts | 90° |
| 2026-05-07 16:33 | 51.85658 | 7.61485 | 19073 ft | 358 kts | 90° |
| 2026-05-07 16:33 | 51.85694 | 7.65517 | 19070 ft | 358 kts | 86° |
| 2026-05-07 16:34 | 51.86165 | 7.69477 | 19068 ft | 358 kts | 71° |
| 2026-05-07 16:34 | 51.87283 | 7.73004 | 19073 ft | 358 kts | 56° |
| 2026-05-07 16:34 | 51.88783 | 7.76213 | 19070 ft | 358 kts | 49° |
| 2026-05-07 16:34 | 51.90450 | 7.79210 | 19070 ft | 357 kts | 46° |
| 2026-05-07 16:35 | 51.92192 | 7.82083 | 19072 ft | 357 kts | 44° |
| 2026-05-07 16:35 | 51.93961 | 7.84912 | 19074 ft | 357 kts | 44° |
| 2026-05-07 16:35 | 51.95734 | 7.87745 | 19075 ft | 357 kts | 44° |
| 2026-05-07 16:35 | 51.97493 | 7.90591 | 19055 ft | 358 kts | 44° |
| 2026-05-07 16:36 | 51.99249 | 7.93473 | 18825 ft | 357 kts | 45° |
| 2026-05-07 16:36 | 52.00977 | 7.96344 | 18601 ft | 355 kts | 45° |
| 2026-05-07 16:36 | 52.02674 | 7.99188 | 18270 ft | 354 kts | 45° |
| 2026-05-07 16:36 | 52.04379 | 8.02057 | 17766 ft | 351 kts | 45° |
| 2026-05-07 16:37 | 52.06071 | 8.04912 | 17250 ft | 349 kts | 45° |
| 2026-05-07 16:37 | 52.07745 | 8.07741 | 16760 ft | 345 kts | 45° |
| 2026-05-07 16:37 | 52.09404 | 8.10547 | 16261 ft | 342 kts | 45° |
| 2026-05-07 16:37 | 52.11052 | 8.13334 | 15777 ft | 340 kts | 45° |
| 2026-05-07 16:38 | 52.12681 | 8.16092 | 15284 ft | 336 kts | 45° |
| 2026-05-07 16:38 | 52.14295 | 8.18826 | 14798 ft | 334 kts | 46° |
| 2026-05-07 16:38 | 52.15897 | 8.21542 | 14317 ft | 330 kts | 45° |
| 2026-05-07 16:38 | 52.17478 | 8.24226 | 13816 ft | 327 kts | 45° |
| 2026-05-07 16:39 | 52.19019 | 8.26946 | 13307 ft | 325 kts | 51° |
| 2026-05-07 16:39 | 52.20221 | 8.30046 | 12803 ft | 323 kts | 61° |
| 2026-05-07 16:39 | 52.21214 | 8.33261 | 12306 ft | 320 kts | 63° |
| 2026-05-07 16:39 | 52.22189 | 8.36508 | 11820 ft | 317 kts | 63° |
| 2026-05-07 16:40 | 52.23157 | 8.39728 | 11347 ft | 314 kts | 64° |
| 2026-05-07 16:40 | 52.24115 | 8.42926 | 10837 ft | 312 kts | 63° |
| 2026-05-07 16:40 | 52.25060 | 8.46084 | 10284 ft | 308 kts | 63° |
| 2026-05-07 16:40 | 52.26000 | 8.49226 | 9578 ft | 307 kts | 63° |
| 2026-05-07 16:41 | 52.26906 | 8.52269 | 9043 ft | 285 kts | 63° |
| 2026-05-07 16:41 | 52.27761 | 8.55142 | 8597 ft | 284 kts | 63° |
| 2026-05-07 16:41 | 52.28616 | 8.58013 | 8154 ft | 278 kts | 63° |
| 2026-05-07 16:41 | 52.29448 | 8.60825 | 7754 ft | 273 kts | 63° |
| 2026-05-07 16:42 | 52.30277 | 8.63615 | 7262 ft | 271 kts | 63° |
| 2026-05-07 16:42 | 52.31097 | 8.66376 | 6768 ft | 268 kts | 63° |
| 2026-05-07 16:42 | 52.31906 | 8.69103 | 6214 ft | 263 kts | 63° |
| 2026-05-07 16:42 | 52.32703 | 8.71776 | 5625 ft | 263 kts | 64° |
| 2026-05-07 16:43 | 52.33512 | 8.74458 | 5044 ft | 263 kts | 64° |
| 2026-05-07 16:43 | 52.34318 | 8.77111 | 4684 ft | 257 kts | 64° |
| 2026-05-07 16:43 | 52.35109 | 8.79716 | 4370 ft | 254 kts | 63° |
| 2026-05-07 16:43 | 52.35885 | 8.82276 | 3741 ft | 249 kts | 63° |
| 2026-05-07 16:44 | 52.36651 | 8.84818 | 3114 ft | 248 kts | 64° |
| 2026-05-07 16:44 | 52.37421 | 8.87364 | 2792 ft | 251 kts | 63° |
| 2026-05-07 16:44 | 52.38177 | 8.89876 | 2832 ft | 248 kts | 64° |
| 2026-05-07 16:44 | 52.38942 | 8.92412 | 2927 ft | 247 kts | 64° |
| 2026-05-07 16:45 | 52.39705 | 8.94939 | 3008 ft | 248 kts | 64° |
| 2026-05-07 16:45 | 52.40476 | 8.97476 | 3021 ft | 248 kts | 64° |
| 2026-05-07 16:45 | 52.41254 | 9.00003 | 3017 ft | 248 kts | 64° |
| 2026-05-07 16:45 | 52.41977 | 9.02567 | 3016 ft | 248 kts | 70° |
| 2026-05-07 16:46 | 52.42276 | 9.04362 | 3014 ft | 247 kts | 77° |
| 2026-05-07 16:46 | 52.42534 | 9.07138 | 3014 ft | 246 kts | 82° |
| 2026-05-07 16:46 | 52.42758 | 9.09832 | 3016 ft | 229 kts | 81° |
| 2026-05-07 16:46 | 52.43051 | 9.13150 | 3016 ft | 215 kts | 80° |
| 2026-05-07 16:47 | 52.43200 | 9.14756 | 3020 ft | 204 kts | 80° |
| 2026-05-07 16:47 | 52.43412 | 9.16930 | 3006 ft | 189 kts | 81° |
| 2026-05-07 16:47 | 52.43612 | 9.19012 | 2980 ft | 182 kts | 81° |
| 2026-05-07 16:47 | 52.43784 | 9.21058 | 2789 ft | 181 kts | 81° |
| 2026-05-07 16:48 | 52.43959 | 9.23070 | 2504 ft | 173 kts | 81° |
| 2026-05-07 16:48 | 52.44132 | 9.24943 | 2260 ft | 160 kts | 81° |
| 2026-05-07 16:48 | 52.44290 | 9.26685 | 2044 ft | 149 kts | 82° |
| 2026-05-07 16:48 | 52.44436 | 9.28309 | 1851 ft | 140 kts | 82° |
| 2026-05-07 16:49 | 52.44574 | 9.29847 | 1667 ft | 134 kts | 82° |
| 2026-05-07 16:49 | 52.44705 | 9.31299 | 1483 ft | 123 kts | 82° |
| 2026-05-07 16:49 | 52.44828 | 9.32666 | 1319 ft | 121 kts | 82° |
| 2026-05-07 16:49 | 52.44951 | 9.34038 | 1140 ft | 124 kts | 82° |
| 2026-05-07 16:50 | 52.45077 | 9.35427 | 977 ft | 123 kts | 82° |
| 2026-05-07 16:50 | 52.45201 | 9.36812 | 803 ft | 122 kts | 82° |
| 2026-05-07 16:50 | 52.45327 | 9.38210 | 650 ft | 124 kts | 82° |
| 2026-05-07 16:50 | 52.45455 | 9.39622 | 482 ft | 126 kts | 83° |
| 2026-05-07 16:51 | 52.45586 | 9.41025 | 306 ft | 124 kts | 83° |
| 2026-05-07 16:51 | 52.45700 | 9.42415 | 200 ft | 114 kts | 82° |
| 2026-05-07 16:51 | 52.45792 | 9.43379 | 193 ft | 58 kts | 79° |
| 2026-05-07 16:51 | 52.45827 | 9.43743 | 188 ft | 19 kts | 79° |
| 2026-05-07 16:52 | 52.45888 | 9.43776 | 188 ft | 13 kts | 322° |
| 2026-05-07 16:52 | 52.45964 | 9.43676 | 193 ft | 7 kts | 320° |
| 2026-05-07 16:52 | 52.45978 | 9.43657 | 198 ft | 0 kts | 319° |
| 2026-05-07 16:53 | 52.45985 | 9.43648 | 199 ft | 3 kts | 319° |
| 2026-05-07 16:53 | 52.46003 | 9.43597 | 199 ft | 7 kts | 285° |
| 2026-05-07 16:53 | 52.46001 | 9.43507 | 188 ft | 10 kts | 266° |
| 2026-05-07 16:54 | 52.45991 | 9.43372 | 192 ft | 16 kts | 262° |
| 2026-05-07 16:54 | 52.45972 | 9.43169 | 183 ft | 19 kts | 260° |
| 2026-05-07 16:54 | 52.45951 | 9.42942 | 184 ft | 21 kts | 261° |
| 2026-05-07 16:54 | 52.45931 | 9.42711 | 186 ft | 16 kts | 262° |
| 2026-05-07 16:55 | 52.45948 | 9.42643 | 188 ft | 6 kts | 336° |
| 2026-05-07 16:55 | 52.45997 | 9.42628 | 185 ft | 8 kts | 351° |
| 2026-05-07 16:55 | 52.46027 | 9.42569 | 186 ft | 7 kts | 266° |
| 2026-05-07 16:55 | 52.46021 | 9.42502 | 182 ft | 0 kts | 262° |